Language: 


Des rapports , des résumés tant et plus, au choix de chacun....


Données Historiques de Météogheer
Journalier Rapport pour Février 2, 2017 Unitée:  Les deux    Impériale   Métrique
Suivant Jour »
Journalier Hebdomadaire Mensuel Annuel Sur mesure
  Max: Min: Moyenne:
Température: 56.7 °F /  13.7 °C 32 °F /  0.0 °C 50.5 °F /  10.3 °C
Point de rosée: 50 °F /  10.0 °C 45.7 °F /  7.6 °C 47.7 °F /  8.7 °C
Humidité: 97% 0% 90%
Vent: 16.6mph /  26.7km/h - 7.2mph /  11.6km/h
Rafales: 21.5mph /  34.6km/h - -
Vent- - South
Pression: 29.7 in /  1007.0 hPa 0 in /  0.0 hPa -
Pluie: 0.02 in /  0.5 mm    
Historical Graphs
 
 
Données tabulaires pour Février 2, 2017
Heure Température Point de rosée Pression Vent Vent Rafales Humidité Pluie Taux (Horaire) Conditions
00:00 47.5 °F /  8.6 °C 46.8 °F /  8.2 °C 29.7in /  1006.0hPa South 5.6mph /  9.0km/h 8.9mph /  14.3km/h 97% 0in /  0.0mm
00:05 47.7 °F /  8.7 °C 46.9 °F /  8.3 °C 29.7in /  1006.0hPa South 4.9mph /  7.9km/h 8.9mph /  14.3km/h 97% 0in /  0.0mm
00:10 47.7 °F /  8.7 °C 46.9 °F /  8.3 °C 29.7in /  1007.0hPa South 4mph /  6.4km/h 8.1mph /  13.0km/h 97% 0in /  0.0mm
00:15 47.7 °F /  8.7 °C 46.9 °F /  8.3 °C 29.7in /  1007.0hPa SSW 4mph /  6.4km/h 8.5mph /  13.7km/h 97% 0in /  0.0mm
00:18 47.5 °F /  8.6 °C 46.8 °F /  8.2 °C 29.7in /  1007.0hPa SSW 4.3mph /  6.9km/h 8.5mph /  13.7km/h 97% 0in /  0.0mm
00:23 47.5 °F /  8.6 °C 46.8 °F /  8.2 °C 29.7in /  1007.0hPa South 7.8mph /  12.6km/h 8.5mph /  13.7km/h 97% 0in /  0.0mm
00:28 47.5 °F /  8.6 °C 46.8 °F /  8.2 °C 29.7in /  1007.0hPa South 8.1mph /  13.0km/h 8.7mph /  14.0km/h 97% 0in /  0.0mm
00:33 47.7 °F /  8.7 °C 46.9 °F /  8.3 °C 29.7in /  1007.0hPa South 8.5mph /  13.7km/h 9.4mph /  15.1km/h 97% 0in /  0.0mm
00:38 47.7 °F /  8.7 °C 46.9 °F /  8.3 °C 29.7in /  1007.0hPa SSW 6.3mph /  10.1km/h 10.7mph /  17.2km/h 97% 0in /  0.0mm
00:43 47.7 °F /  8.7 °C 46.9 °F /  8.3 °C 29.7in /  1007.0hPa South 11.4mph /  18.3km/h 11.4mph /  18.3km/h 97% 0in /  0.0mm
00:48 47.8 °F /  8.8 °C 47.1 °F /  8.4 °C 29.7in /  1007.0hPa SSW 5.6mph /  9.0km/h 11.4mph /  18.3km/h 97% 0in /  0.0mm
00:49 47.8 °F /  8.8 °C 47.1 °F /  8.4 °C 29.7in /  1007.0hPa South 4.5mph /  7.2km/h 11.4mph /  18.3km/h 97% 0in /  0.0mm
00:54 47.8 °F /  8.8 °C 47.1 °F /  8.4 °C 29.7in /  1006.0hPa South 7.2mph /  11.6km/h 8.7mph /  14.0km/h 97% 0in /  0.0mm
00:59 48 °F /  8.9 °C 47.1 °F /  8.4 °C 29.7in /  1006.0hPa SSE 7.6mph /  12.2km/h 10.1mph /  16.3km/h 97% 0in /  0.0mm
01:04 48 °F /  8.9 °C 47.1 °F /  8.4 °C 29.7in /  1006.0hPa South 4.9mph /  7.9km/h 10.1mph /  16.3km/h 97% 0in /  0.0mm
01:09 48.2 °F /  9.0 °C 47.5 °F /  8.6 °C 29.7in /  1007.0hPa SSW 8.5mph /  13.7km/h 13mph /  20.9km/h 97% 0in /  0.0mm
01:14 48.2 °F /  9.0 °C 47.5 °F /  8.6 °C 29.7in /  1007.0hPa SSE 4.7mph /  7.6km/h 13mph /  20.9km/h 97% 0in /  0.0mm
01:19 48.4 °F /  9.1 °C 47.7 °F /  8.7 °C 29.7in /  1007.0hPa South 7.6mph /  12.2km/h 8.7mph /  14.0km/h 97% 0in /  0.0mm
01:24 48.4 °F /  9.1 °C 47.3 °F /  8.5 °C 29.7in /  1007.0hPa South 7.6mph /  12.2km/h 8.7mph /  14.0km/h 96% 0in /  0.0mm
01:29 48.2 °F /  9.0 °C 47.1 °F /  8.4 °C 29.7in /  1007.0hPa SSE 6.5mph /  10.5km/h 7.8mph /  12.6km/h 96% 0in /  0.0mm
01:34 48 °F /  8.9 °C 46.9 °F /  8.3 °C 29.7in /  1007.0hPa SSW 6.3mph /  10.1km/h 8.7mph /  14.0km/h 96% 0in /  0.0mm
01:39 47.8 °F /  8.8 °C 46.8 °F /  8.2 °C 29.7in /  1007.0hPa South 7.6mph /  12.2km/h 10.3mph /  16.6km/h 96% 0in /  0.0mm
01:44 47.8 °F /  8.8 °C 46.8 °F /  8.2 °C 29.7in /  1007.0hPa SE 4.9mph /  7.9km/h 10.3mph /  16.6km/h 96% 0in /  0.0mm
01:49 47.7 °F /  8.7 °C 46.9 °F /  8.3 °C 29.7in /  1007.0hPa SSE 8.7mph /  14.0km/h 8.7mph /  14.0km/h 97% 0in /  0.0mm
01:54 47.7 °F /  8.7 °C 46.9 °F /  8.3 °C 29.7in /  1006.0hPa SSE 6.3mph /  10.1km/h 9.6mph /  15.4km/h 97% 0in /  0.0mm
01:59 47.5 °F /  8.6 °C 46.8 °F /  8.2 °C 29.7in /  1006.0hPa South 4mph /  6.4km/h 9.6mph /  15.4km/h 97% 0in /  0.0mm
02:04 47.3 °F /  8.5 °C 46.6 °F /  8.1 °C 29.7in /  1006.0hPa South 4.3mph /  6.9km/h 7.8mph /  12.6km/h 97% 0in /  0.0mm
02:09 47.3 °F /  8.5 °C 46.6 °F /  8.1 °C 29.7in /  1006.0hPa SSW 3.8mph /  6.1km/h 7.2mph /  11.6km/h 97% 0in /  0.0mm
02:14 47.1 °F /  8.4 °C 46.4 °F /  8.0 °C 29.7in /  1006.0hPa South 4mph /  6.4km/h 6.9mph /  11.1km/h 97% 0in /  0.0mm
02:19 46.9 °F /  8.3 °C 46.2 °F /  7.9 °C 29.7in /  1006.0hPa South 6mph /  9.7km/h 7.8mph /  12.6km/h 97% 0in /  0.0mm
02:24 46.9 °F /  8.3 °C 46.2 °F /  7.9 °C 29.7in /  1006.0hPa South 7.4mph /  11.9km/h 8.1mph /  13.0km/h 97% 0in /  0.0mm
02:29 46.9 °F /  8.3 °C 46.2 °F /  7.9 °C 29.7in /  1006.0hPa SSE 3.1mph /  5.0km/h 8.5mph /  13.7km/h 97% 0in /  0.0mm
02:34 46.9 °F /  8.3 °C 46.2 °F /  7.9 °C 29.7in /  1006.0hPa SSE 4.9mph /  7.9km/h 8.5mph /  13.7km/h 97% 0in /  0.0mm
02:39 46.9 °F /  8.3 °C 46.2 °F /  7.9 °C 29.7in /  1006.0hPa South 5.4mph /  8.7km/h 10.1mph /  16.3km/h 97% 0in /  0.0mm
02:44 46.9 °F /  8.3 °C 46.2 °F /  7.9 °C 29.7in /  1006.0hPa SSE 4mph /  6.4km/h 11.9mph /  19.1km/h 97% 0in /  0.0mm
02:49 46.9 °F /  8.3 °C 46.2 °F /  7.9 °C 29.7in /  1006.0hPa South 6.3mph /  10.1km/h 11.9mph /  19.1km/h 97% 0in /  0.0mm
02:54 46.9 °F /  8.3 °C 46.2 °F /  7.9 °C 29.7in /  1006.0hPa South 4mph /  6.4km/h 8.5mph /  13.7km/h 97% 0in /  0.0mm
02:59 46.9 °F /  8.3 °C 46.2 °F /  7.9 °C 29.7in /  1006.0hPa SSW 5.4mph /  8.7km/h 9.2mph /  14.8km/h 97% 0in /  0.0mm
03:06 32 °F /  0.0 °C 46.2 °F /  7.9 °C 0in /  0.0hPa SSW 8.9mph /  14.3km/h 8.9mph /  14.3km/h 0% 0in /  0.0mm
03:11 46.9 °F /  8.3 °C 46.2 °F /  7.9 °C 29.7in /  1006.0hPa SSE 7.4mph /  11.9km/h 11mph /  17.7km/h 97% 0in /  0.0mm
03:16 46.9 °F /  8.3 °C 46.2 °F /  7.9 °C 29.7in /  1006.0hPa SSW 6.5mph /  10.5km/h 11mph /  17.7km/h 97% 0in /  0.0mm
03:21 46.9 °F /  8.3 °C 46.2 °F /  7.9 °C 29.7in /  1006.0hPa SSE 3.6mph /  5.8km/h 8.7mph /  14.0km/h 97% 0in /  0.0mm
03:26 46.9 °F /  8.3 °C 46.2 °F /  7.9 °C 29.7in /  1006.0hPa South 3.8mph /  6.1km/h 7.2mph /  11.6km/h 97% 0in /  0.0mm
03:31 46.9 °F /  8.3 °C 46.2 °F /  7.9 °C 29.7in /  1006.0hPa SSE 3.6mph /  5.8km/h 6.3mph /  10.1km/h 97% 0in /  0.0mm
03:36 46.9 °F /  8.3 °C 46.2 °F /  7.9 °C 29.7in /  1006.0hPa SSE 3.1mph /  5.0km/h 6.3mph /  10.1km/h 97% 0in /  0.0mm
03:41 46.9 °F /  8.3 °C 46.2 °F /  7.9 °C 29.7in /  1005.0hPa South 4.3mph /  6.9km/h 7.8mph /  12.6km/h 97% 0in /  0.0mm
03:46 47.1 °F /  8.4 °C 46.4 °F /  8.0 °C 29.7in /  1005.0hPa South 7.4mph /  11.9km/h 9.4mph /  15.1km/h 97% 0in /  0.0mm
03:51 47.1 °F /  8.4 °C 46.4 °F /  8.0 °C 29.7in /  1005.0hPa South 8.1mph /  13.0km/h 9.4mph /  15.1km/h 97% 0in /  0.0mm
03:56 47.1 °F /  8.4 °C 46.4 °F /  8.0 °C 29.7in /  1005.0hPa South 3.6mph /  5.8km/h 8.5mph /  13.7km/h 97% 0in /  0.0mm
04:01 47.1 °F /  8.4 °C 46.4 °F /  8.0 °C 29.7in /  1005.0hPa SSE 4mph /  6.4km/h 8.5mph /  13.7km/h 97% 0in /  0.0mm
04:06 47.1 °F /  8.4 °C 46.4 °F /  8.0 °C 29.7in /  1005.0hPa SSE 4.7mph /  7.6km/h 8.5mph /  13.7km/h 97% 0in /  0.0mm
04:11 47.1 °F /  8.4 °C 46.4 °F /  8.0 °C 29.7in /  1005.0hPa South 6.5mph /  10.5km/h 8.5mph /  13.7km/h 97% 0in /  0.0mm
04:16 47.1 °F /  8.4 °C 46.4 °F /  8.0 °C 29.7in /  1005.0hPa South 5.6mph /  9.0km/h 9.4mph /  15.1km/h 97% 0in /  0.0mm
04:21 46.9 °F /  8.3 °C 46.2 °F /  7.9 °C 29.7in /  1005.0hPa South 6mph /  9.7km/h 9.4mph /  15.1km/h 97% 0in /  0.0mm
04:26 47.1 °F /  8.4 °C 46.4 °F /  8.0 °C 29.6in /  1003.9hPa SE 3.1mph /  5.0km/h 8.7mph /  14.0km/h 97% 0in /  0.0mm
04:31 46.9 °F /  8.3 °C 46.2 °F /  7.9 °C 29.6in /  1003.9hPa SSE 4.7mph /  7.6km/h 8.7mph /  14.0km/h 97% 0in /  0.0mm
04:36 46.9 °F /  8.3 °C 46.2 °F /  7.9 °C 29.6in /  1003.9hPa South 3.4mph /  5.5km/h 8.1mph /  13.0km/h 97% 0in /  0.0mm
04:41 46.9 °F /  8.3 °C 46.2 °F /  7.9 °C 29.6in /  1003.9hPa SSE 7.2mph /  11.6km/h 8.7mph /  14.0km/h 97% 0in /  0.0mm
04:46 46.8 °F /  8.2 °C 46 °F /  7.8 °C 29.6in /  1003.9hPa South 10.3mph /  16.6km/h 10.7mph /  17.2km/h 97% 0in /  0.0mm
04:51 46.9 °F /  8.3 °C 46.2 °F /  7.9 °C 29.6in /  1003.9hPa SSE 5.4mph /  8.7km/h 10.7mph /  17.2km/h 97% 0in /  0.0mm
04:56 46.8 °F /  8.2 °C 46 °F /  7.8 °C 29.7in /  1005.0hPa SSE 8.5mph /  13.7km/h 10.3mph /  16.6km/h 97% 0in /  0.0mm
05:01 46.6 °F /  8.1 °C 45.9 °F /  7.7 °C 29.7in /  1005.0hPa SSW 6.3mph /  10.1km/h 8.9mph /  14.3km/h 97% 0in /  0.0mm
05:06 46.6 °F /  8.1 °C 45.9 °F /  7.7 °C 29.7in /  1005.0hPa SSW 5.8mph /  9.3km/h 9.8mph /  15.8km/h 97% 0in /  0.0mm
05:11 46.8 °F /  8.2 °C 46 °F /  7.8 °C 29.7in /  1005.0hPa South 7.8mph /  12.6km/h 12.1mph /  19.5km/h 97% 0in /  0.0mm
05:16 46.8 °F /  8.2 °C 46 °F /  7.8 °C 29.7in /  1005.0hPa South 8.7mph /  14.0km/h 12.1mph /  19.5km/h 97% 0in /  0.0mm
05:21 46.8 °F /  8.2 °C 46 °F /  7.8 °C 29.7in /  1005.0hPa South 7.6mph /  12.2km/h 11.9mph /  19.1km/h 97% 0in /  0.0mm
05:26 46.8 °F /  8.2 °C 46 °F /  7.8 °C 29.7in /  1005.0hPa South 8.7mph /  14.0km/h 12.5mph /  20.1km/h 97% 0in /  0.0mm
05:31 46.8 °F /  8.2 °C 46 °F /  7.8 °C 29.7in /  1005.0hPa SSE 5.8mph /  9.3km/h 12.5mph /  20.1km/h 97% 0in /  0.0mm
05:36 46.6 °F /  8.1 °C 45.9 °F /  7.7 °C 29.7in /  1005.0hPa SSE 3.6mph /  5.8km/h 10.3mph /  16.6km/h 97% 0in /  0.0mm
05:41 46.6 °F /  8.1 °C 45.9 °F /  7.7 °C 29.7in /  1005.0hPa South 3.1mph /  5.0km/h 8.1mph /  13.0km/h 97% 0in /  0.0mm
05:46 46.6 °F /  8.1 °C 45.7 °F /  7.6 °C 29.7in /  1005.0hPa SSE 2.9mph /  4.7km/h 7.2mph /  11.6km/h 97% 0in /  0.0mm
05:51 46.6 °F /  8.1 °C 45.7 °F /  7.6 °C 29.7in /  1005.0hPa SSE 6.5mph /  10.5km/h 7.4mph /  11.9km/h 97% 0in /  0.0mm
05:56 46.6 °F /  8.1 °C 45.7 °F /  7.6 °C 29.7in /  1005.0hPa SSE 5.4mph /  8.7km/h 8.5mph /  13.7km/h 97% 0in /  0.0mm
06:01 46.6 °F /  8.1 °C 45.9 °F /  7.7 °C 29.7in /  1005.0hPa South 3.8mph /  6.1km/h 10.5mph /  16.9km/h 97% 0in /  0.0mm
06:06 46.6 °F /  8.1 °C 45.9 °F /  7.7 °C 29.7in /  1005.0hPa SSE 2.5mph /  4.0km/h 10.5mph /  16.9km/h 97% 0in /  0.0mm
06:11 46.8 °F /  8.2 °C 46 °F /  7.8 °C 29.7in /  1005.0hPa SSE 5.8mph /  9.3km/h 8.7mph /  14.0km/h 97% 0in /  0.0mm
06:16 46.8 °F /  8.2 °C 46 °F /  7.8 °C 29.7in /  1005.0hPa South 3.4mph /  5.5km/h 8.7mph /  14.0km/h 97% 0in /  0.0mm
06:21 46.8 °F /  8.2 °C 46 °F /  7.8 °C 29.7in /  1005.0hPa SSE 4.9mph /  7.9km/h 10.3mph /  16.6km/h 97% 0in /  0.0mm
06:26 46.8 °F /  8.2 °C 46 °F /  7.8 °C 29.6in /  1003.9hPa South 4.3mph /  6.9km/h 10.3mph /  16.6km/h 97% 0in /  0.0mm
06:31 46.8 °F /  8.2 °C 46 °F /  7.8 °C 29.6in /  1003.9hPa South 6.3mph /  10.1km/h 8.7mph /  14.0km/h 97% 0in /  0.0mm
06:36 46.9 °F /  8.3 °C 46.2 °F /  7.9 °C 29.6in /  1003.9hPa SSE 5.6mph /  9.0km/h 8.7mph /  14.0km/h 97% 0in /  0.0mm
06:41 46.9 °F /  8.3 °C 46.2 °F /  7.9 °C 29.7in /  1005.0hPa South 1.1mph /  1.8km/h 7.4mph /  11.9km/h 97% 0in /  0.0mm
06:46 46.9 °F /  8.3 °C 46.2 °F /  7.9 °C 29.7in /  1005.0hPa SSW 4.3mph /  6.9km/h 9.4mph /  15.1km/h 97% 0in /  0.0mm
06:51 46.9 °F /  8.3 °C 46.2 °F /  7.9 °C 29.7in /  1005.0hPa South 6.3mph /  10.1km/h 9.4mph /  15.1km/h 97% 0in /  0.0mm
06:56 46.9 °F /  8.3 °C 46.2 °F /  7.9 °C 29.6in /  1003.9hPa South 4.9mph /  7.9km/h 8.7mph /  14.0km/h 97% 0in /  0.0mm
07:01 46.9 °F /  8.3 °C 46.2 °F /  7.9 °C 29.6in /  1003.9hPa South 6.3mph /  10.1km/h 8.7mph /  14.0km/h 97% 0in /  0.0mm
07:06 46.9 °F /  8.3 °C 46.2 °F /  7.9 °C 29.6in /  1003.9hPa South 5.4mph /  8.7km/h 10.1mph /  16.3km/h 97% 0in /  0.0mm
07:11 46.9 °F /  8.3 °C 46.2 °F /  7.9 °C 29.6in /  1003.9hPa South 6mph /  9.7km/h 10.5mph /  16.9km/h 97% 0in /  0.0mm
07:16 47.1 °F /  8.4 °C 46.4 °F /  8.0 °C 29.6in /  1003.9hPa South 8.1mph /  13.0km/h 13mph /  20.9km/h 97% 0in /  0.0mm
07:21 47.1 °F /  8.4 °C 46.4 °F /  8.0 °C 29.6in /  1003.9hPa SSW 6.3mph /  10.1km/h 13mph /  20.9km/h 97% 0in /  0.0mm
07:26 47.1 °F /  8.4 °C 46.4 °F /  8.0 °C 29.6in /  1003.9hPa SSW 5.6mph /  9.0km/h 13mph /  20.9km/h 97% 0in /  0.0mm
07:31 47.1 °F /  8.4 °C 46.4 °F /  8.0 °C 29.6in /  1003.9hPa South 7.4mph /  11.9km/h 12.5mph /  20.1km/h 97% 0in /  0.0mm
07:36 47.1 °F /  8.4 °C 46.4 °F /  8.0 °C 29.6in /  1003.9hPa South 6mph /  9.7km/h 14.5mph /  23.3km/h 97% 0in /  0.0mm
07:41 47.1 °F /  8.4 °C 46.4 °F /  8.0 °C 29.6in /  1003.9hPa SSE 8.9mph /  14.3km/h 14.5mph /  23.3km/h 97% 0in /  0.0mm
07:46 47.1 °F /  8.4 °C 46.4 °F /  8.0 °C 29.6in /  1003.9hPa South 8.7mph /  14.0km/h 14.3mph /  23.0km/h 97% 0in /  0.0mm
07:51 47.3 °F /  8.5 °C 46.6 °F /  8.1 °C 29.6in /  1003.9hPa SSE 5.8mph /  9.3km/h 14.3mph /  23.0km/h 97% 0in /  0.0mm
07:56 47.3 °F /  8.5 °C 46.6 °F /  8.1 °C 29.6in /  1002.9hPa SSW 3.8mph /  6.1km/h 13.6mph /  21.9km/h 97% 0in /  0.0mm
08:01 47.3 °F /  8.5 °C 46.6 °F /  8.1 °C 29.6in /  1002.9hPa SSE 5.4mph /  8.7km/h 13.6mph /  21.9km/h 97% 0in /  0.0mm
08:06 47.3 °F /  8.5 °C 46.6 °F /  8.1 °C 29.6in /  1002.9hPa South 5.4mph /  8.7km/h 14.8mph /  23.8km/h 97% 0in /  0.0mm
08:11 47.5 °F /  8.6 °C 46.8 °F /  8.2 °C 29.6in /  1002.9hPa South 5.8mph /  9.3km/h 14.8mph /  23.8km/h 97% 0in /  0.0mm
08:16 47.5 °F /  8.6 °C 46.4 °F /  8.0 °C 29.6in /  1002.9hPa SSW 16.6mph /  26.7km/h 16.6mph /  26.7km/h 96% 0in /  0.0mm
08:21 47.5 °F /  8.6 °C 46.4 °F /  8.0 °C 29.6in /  1002.9hPa South 3.8mph /  6.1km/h 16.6mph /  26.7km/h 96% 0in /  0.0mm
08:26 47.5 °F /  8.6 °C 46.4 °F /  8.0 °C 29.6in /  1002.9hPa SSE 7.6mph /  12.2km/h 12.3mph /  19.8km/h 96% 0in /  0.0mm
08:31 47.5 °F /  8.6 °C 46.4 °F /  8.0 °C 29.6in /  1002.9hPa South 4.9mph /  7.9km/h 11.9mph /  19.1km/h 96% 0in /  0.0mm
08:36 47.5 °F /  8.6 °C 46.4 °F /  8.0 °C 29.6in /  1002.9hPa SSE 5.8mph /  9.3km/h 14.3mph /  23.0km/h 96% 0in /  0.0mm
08:41 47.7 °F /  8.7 °C 46.6 °F /  8.1 °C 29.6in /  1002.9hPa South 8.5mph /  13.7km/h 14.3mph /  23.0km/h 96% 0in /  0.0mm
08:46 47.7 °F /  8.7 °C 46.6 °F /  8.1 °C 29.6in /  1002.9hPa SSE 10.5mph /  16.9km/h 12.1mph /  19.5km/h 96% 0in /  0.0mm
08:51 47.8 °F /  8.8 °C 46.8 °F /  8.2 °C 29.6in /  1002.9hPa SSW 9.8mph /  15.8km/h 12.1mph /  19.5km/h 96% 0in /  0.0mm
08:56 48 °F /  8.9 °C 46.9 °F /  8.3 °C 29.6in /  1002.9hPa South 6.7mph /  10.8km/h 12.8mph /  20.6km/h 96% 0in /  0.0mm
09:01 48 °F /  8.9 °C 46.9 °F /  8.3 °C 29.6in /  1002.9hPa SSW 6mph /  9.7km/h 12.8mph /  20.6km/h 96% 0in /  0.0mm
09:06 48 °F /  8.9 °C 46.9 °F /  8.3 °C 29.6in /  1002.9hPa South 6.3mph /  10.1km/h 12.5mph /  20.1km/h 96% 0in /  0.0mm
09:07 48 °F /  8.9 °C 46.9 °F /  8.3 °C 29.6in /  1002.9hPa SSW 7.6mph /  12.2km/h 12.5mph /  20.1km/h 96% 0in /  0.0mm
09:12 48.2 °F /  9.0 °C 47.1 °F /  8.4 °C 29.6in /  1002.9hPa South 7.6mph /  12.2km/h 12.5mph /  20.1km/h 96% 0in /  0.0mm
09:17 48.2 °F /  9.0 °C 47.1 °F /  8.4 °C 29.6in /  1002.9hPa South 4.3mph /  6.9km/h 15.7mph /  25.3km/h 96% 0in /  0.0mm
09:22 48.4 °F /  9.1 °C 46.9 °F /  8.3 °C 29.6in /  1002.9hPa SSE 8.1mph /  13.0km/h 15.7mph /  25.3km/h 95% 0in /  0.0mm
09:27 48.6 °F /  9.2 °C 47.1 °F /  8.4 °C 29.6in /  1002.9hPa SSE 10.3mph /  16.6km/h 13.2mph /  21.2km/h 95% 0in /  0.0mm
09:32 48.7 °F /  9.3 °C 47.5 °F /  8.6 °C 29.6in /  1002.9hPa SSE 10.1mph /  16.3km/h 12.3mph /  19.8km/h 95% 0in /  0.0mm
09:37 48.9 °F /  9.4 °C 47.7 °F /  8.7 °C 29.6in /  1002.9hPa SSE 8.1mph /  13.0km/h 12.1mph /  19.5km/h 95% 0in /  0.0mm
09:42 48.9 °F /  9.4 °C 47.7 °F /  8.7 °C 29.6in /  1002.9hPa SSE 5.4mph /  8.7km/h 13mph /  20.9km/h 95% 0in /  0.0mm
09:47 49.1 °F /  9.5 °C 47.7 °F /  8.7 °C 29.6in /  1002.9hPa SSE 7.6mph /  12.2km/h 13.2mph /  21.2km/h 95% 0in /  0.0mm
09:52 49.1 °F /  9.5 °C 47.5 °F /  8.6 °C 29.6in /  1002.9hPa South 10.3mph /  16.6km/h 13.4mph /  21.6km/h 94% 0in /  0.0mm
09:57 49.3 °F /  9.6 °C 47.7 °F /  8.7 °C 29.6in /  1002.9hPa South 7.4mph /  11.9km/h 15.7mph /  25.3km/h 94% 0in /  0.0mm
10:02 49.1 °F /  9.5 °C 47.5 °F /  8.6 °C 29.6in /  1002.9hPa SSE 5.4mph /  8.7km/h 15.7mph /  25.3km/h 94% 0in /  0.0mm
10:07 49.1 °F /  9.5 °C 47.5 °F /  8.6 °C 29.6in /  1003.9hPa SE 4.9mph /  7.9km/h 10.5mph /  16.9km/h 94% 0in /  0.0mm
10:12 49.1 °F /  9.5 °C 47.5 °F /  8.6 °C 29.6in /  1003.9hPa SSE 6.5mph /  10.5km/h 11mph /  17.7km/h 94% 0in /  0.0mm
10:17 49.3 °F /  9.6 °C 47.7 °F /  8.7 °C 29.6in /  1003.9hPa South 3.1mph /  5.0km/h 11mph /  17.7km/h 94% 0in /  0.0mm
10:22 49.3 °F /  9.6 °C 47.7 °F /  8.7 °C 29.6in /  1002.9hPa SSE 7.8mph /  12.6km/h 10.7mph /  17.2km/h 94% 0in /  0.0mm
10:27 49.5 °F /  9.7 °C 47.8 °F /  8.8 °C 29.6in /  1002.9hPa South 8.1mph /  13.0km/h 12.8mph /  20.6km/h 94% 0in /  0.0mm
10:32 49.6 °F /  9.8 °C 47.7 °F /  8.7 °C 29.6in /  1002.9hPa SE 6mph /  9.7km/h 12.8mph /  20.6km/h 93% 0in /  0.0mm
10:37 49.8 °F /  9.9 °C 47.8 °F /  8.8 °C 29.6in /  1001.9hPa SSE 5.4mph /  8.7km/h 12.1mph /  19.5km/h 93% 0in /  0.0mm
10:42 49.8 °F /  9.9 °C 47.8 °F /  8.8 °C 29.6in /  1001.9hPa SSE 3.4mph /  5.5km/h 13.2mph /  21.2km/h 93% 0in /  0.0mm
10:47 50.2 °F /  10.1 °C 47.8 °F /  8.8 °C 29.6in /  1001.9hPa SSW 7.4mph /  11.9km/h 14.8mph /  23.8km/h 92% 0in /  0.0mm
10:52 50.4 °F /  10.2 °C 48 °F /  8.9 °C 29.6in /  1002.9hPa SSE 6.9mph /  11.1km/h 14.8mph /  23.8km/h 92% 0in /  0.0mm
10:57 50.7 °F /  10.4 °C 48.2 °F /  9.0 °C 29.6in /  1002.9hPa SSE 9.2mph /  14.8km/h 12.5mph /  20.1km/h 91% 0in /  0.0mm
11:02 51.1 °F /  10.6 °C 48.2 °F /  9.0 °C 29.6in /  1002.9hPa SSE 10.1mph /  16.3km/h 12.5mph /  20.1km/h 90% 0in /  0.0mm
11:07 51.3 °F /  10.7 °C 48.4 °F /  9.1 °C 29.6in /  1002.9hPa South 10.5mph /  16.9km/h 12.1mph /  19.5km/h 90% 0in /  0.0mm
11:12 51.4 °F /  10.8 °C 48 °F /  8.9 °C 29.6in /  1002.9hPa South 8.7mph /  14.0km/h 12.1mph /  19.5km/h 88% 0in /  0.0mm
11:17 51.4 °F /  10.8 °C 48 °F /  8.9 °C 29.6in /  1002.9hPa SSE 10.7mph /  17.2km/h 14.1mph /  22.7km/h 88% 0in /  0.0mm
11:22 51.6 °F /  10.9 °C 47.8 °F /  8.8 °C 29.6in /  1001.9hPa SSE 4.9mph /  7.9km/h 14.1mph /  22.7km/h 87% 0in /  0.0mm
11:27 52 °F /  11.1 °C 48.2 °F /  9.0 °C 29.6in /  1001.9hPa SSE 8.7mph /  14.0km/h 17.4mph /  28.0km/h 87% 0in /  0.0mm
11:32 52.5 °F /  11.4 °C 48.6 °F /  9.2 °C 29.6in /  1001.9hPa SSE 8.1mph /  13.0km/h 17.4mph /  28.0km/h 86% 0in /  0.0mm
11:37 53.2 °F /  11.8 °C 48.7 °F /  9.3 °C 29.6in /  1001.9hPa SSE 7.6mph /  12.2km/h 13.2mph /  21.2km/h 85% 0in /  0.0mm
11:42 53.2 °F /  11.8 °C 48.6 °F /  9.2 °C 29.6in /  1001.9hPa South 7.4mph /  11.9km/h 13.2mph /  21.2km/h 84% 0in /  0.0mm
11:47 53.8 °F /  12.1 °C 48.9 °F /  9.4 °C 29.6in /  1001.9hPa South 8.5mph /  13.7km/h 13.2mph /  21.2km/h 84% 0in /  0.0mm
11:52 54 °F /  12.2 °C 48.9 °F /  9.4 °C 29.6in /  1001.9hPa South 5.4mph /  8.7km/h 13.2mph /  21.2km/h 83% 0in /  0.0mm
11:57 54.3 °F /  12.4 °C 48.9 °F /  9.4 °C 29.6in /  1001.9hPa SSW 6.3mph /  10.1km/h 15.7mph /  25.3km/h 82% 0in /  0.0mm
12:02 54.3 °F /  12.4 °C 48.7 °F /  9.3 °C 29.6in /  1001.9hPa South 6.5mph /  10.5km/h 15.7mph /  25.3km/h 81% 0in /  0.0mm
12:07 54.1 °F /  12.3 °C 48.6 °F /  9.2 °C 29.6in /  1001.9hPa SSE 13mph /  20.9km/h 14.5mph /  23.3km/h 81% 0in /  0.0mm
12:12 53.4 °F /  11.9 °C 47.1 °F /  8.4 °C 29.6in /  1001.9hPa South 4.9mph /  7.9km/h 14.5mph /  23.3km/h 79% 0in /  0.0mm
12:17 53.4 °F /  11.9 °C 47.5 °F /  8.6 °C 29.6in /  1001.9hPa SSE 7.8mph /  12.6km/h 12.5mph /  20.1km/h 80% 0in /  0.0mm
12:22 54 °F /  12.2 °C 48 °F /  8.9 °C 29.6in /  1001.9hPa South 5.8mph /  9.3km/h 16.8mph /  27.0km/h 80% 0in /  0.0mm
12:27 54.3 °F /  12.4 °C 48.4 °F /  9.1 °C 29.6in /  1001.9hPa SSW 15.2mph /  24.5km/h 16.8mph /  27.0km/h 80% 0in /  0.0mm
12:32 54.7 °F /  12.6 °C 48.2 °F /  9.0 °C 29.6in /  1001.9hPa SSE 10.5mph /  16.9km/h 15.9mph /  25.6km/h 79% 0in /  0.0mm
12:37 54.9 °F /  12.7 °C 48.4 °F /  9.1 °C 29.6in /  1000.9hPa South 9.8mph /  15.8km/h 13.6mph /  21.9km/h 79% 0in /  0.0mm
12:42 55.2 °F /  12.9 °C 48.9 °F /  9.4 °C 29.6in /  1000.9hPa SSW 6.3mph /  10.1km/h 12.5mph /  20.1km/h 79% 0in /  0.0mm
12:47 55.6 °F /  13.1 °C 48.4 °F /  9.1 °C 29.6in /  1000.9hPa SSW 9.2mph /  14.8km/h 12.5mph /  20.1km/h 77% 0in /  0.0mm
12:52 55.6 °F /  13.1 °C 48.4 °F /  9.1 °C 29.6in /  1000.9hPa South 12.8mph /  20.6km/h 15.2mph /  24.5km/h 77% 0in /  0.0mm
12:57 55.6 °F /  13.1 °C 48.2 °F /  9.0 °C 29.6in /  1000.9hPa SSW 7.6mph /  12.2km/h 15.2mph /  24.5km/h 76% 0in /  0.0mm
13:02 55.6 °F /  13.1 °C 47.5 °F /  8.6 °C 29.6in /  1000.9hPa South 14.5mph /  23.3km/h 15.7mph /  25.3km/h 74% 0in /  0.0mm
13:07 55.6 °F /  13.1 °C 47.3 °F /  8.5 °C 29.6in /  1001.9hPa South 7.6mph /  12.2km/h 16.6mph /  26.7km/h 74% 0in /  0.0mm
13:12 55.6 °F /  13.1 °C 47.8 °F /  8.8 °C 29.6in /  1001.9hPa South 12.1mph /  19.5km/h 16.6mph /  26.7km/h 75% 0in /  0.0mm
13:17 55.8 °F /  13.2 °C 48 °F /  8.9 °C 29.6in /  1001.9hPa SSE 5.6mph /  9.0km/h 15.4mph /  24.8km/h 75% 0in /  0.0mm
13:22 55.6 °F /  13.1 °C 47.3 °F /  8.5 °C 29.6in /  1000.9hPa South 8.1mph /  13.0km/h 17.2mph /  27.7km/h 74% 0in /  0.0mm
13:27 55 °F /  12.8 °C 46.9 °F /  8.3 °C 29.6in /  1000.9hPa South 10.1mph /  16.3km/h 17.2mph /  27.7km/h 74% 0in /  0.0mm
13:32 55 °F /  12.8 °C 46.9 °F /  8.3 °C 29.6in /  1000.9hPa South 13.2mph /  21.2km/h 15.7mph /  25.3km/h 74% 0in /  0.0mm
13:37 55.2 °F /  12.9 °C 47.1 °F /  8.4 °C 29.6in /  1000.9hPa South 12.3mph /  19.8km/h 17.4mph /  28.0km/h 74% 0in /  0.0mm
13:42 55.6 °F /  13.1 °C 47.8 °F /  8.8 °C 29.6in /  1000.9hPa SSE 13mph /  20.9km/h 21.5mph /  34.6km/h 75% 0in /  0.0mm
13:47 55.9 °F /  13.3 °C 47.8 °F /  8.8 °C 29.6in /  1000.9hPa South 10.3mph /  16.6km/h 21.5mph /  34.6km/h 74% 0in /  0.0mm
13:52 56.1 °F /  13.4 °C 48 °F /  8.9 °C 29.6in /  1000.9hPa South 8.9mph /  14.3km/h 15.2mph /  24.5km/h 74% 0in /  0.0mm
13:57 56.5 °F /  13.6 °C 48.4 °F /  9.1 °C 29.6in /  1000.9hPa South 11mph /  17.7km/h 17mph /  27.4km/h 74% 0in /  0.0mm
14:02 56.7 °F /  13.7 °C 48 °F /  8.9 °C 29.6in /  1000.9hPa SSW 6mph /  9.7km/h 17mph /  27.4km/h 73% 0in /  0.0mm
14:07 56.7 °F /  13.7 °C 48 °F /  8.9 °C 29.5in /  999.9hPa South 8.5mph /  13.7km/h 19mph /  30.6km/h 73% 0in /  0.0mm
14:12 56.7 °F /  13.7 °C 48.6 °F /  9.2 °C 29.5in /  999.9hPa South 8.7mph /  14.0km/h 19mph /  30.6km/h 74% 0in /  0.0mm
14:17 56.1 °F /  13.4 °C 48 °F /  8.9 °C 29.5in /  999.9hPa SSE 11.9mph /  19.1km/h 14.8mph /  23.8km/h 74% 0in /  0.0mm
14:22 55.8 °F /  13.2 °C 47.7 °F /  8.7 °C 29.5in /  999.9hPa South 7.4mph /  11.9km/h 14.8mph /  23.8km/h 74% 0in /  0.0mm
14:27 55.6 °F /  13.1 °C 47.5 °F /  8.6 °C 29.5in /  999.9hPa South 5.8mph /  9.3km/h 14.8mph /  23.8km/h 74% 0in /  0.0mm
14:32 55.6 °F /  13.1 °C 47.8 °F /  8.8 °C 29.5in /  999.9hPa South 8.7mph /  14.0km/h 14.8mph /  23.8km/h 75% 0in /  0.0mm
14:37 55.6 °F /  13.1 °C 48 °F /  8.9 °C 29.5in /  999.9hPa South 5.4mph /  8.7km/h 14.8mph /  23.8km/h 76% 0in /  0.0mm
14:42 55.6 °F /  13.1 °C 48 °F /  8.9 °C 29.5in /  999.9hPa South 10.7mph /  17.2km/h 13mph /  20.9km/h 76% 0in /  0.0mm
14:47 55.6 °F /  13.1 °C 48.2 °F /  9.0 °C 29.5in /  999.9hPa South 10.3mph /  16.6km/h 13.4mph /  21.6km/h 76% 0in /  0.0mm
14:52 55.8 °F /  13.2 °C 48.7 °F /  9.3 °C 29.5in /  999.9hPa SSW 10.7mph /  17.2km/h 13.4mph /  21.6km/h 77% 0in /  0.0mm
14:57 55.8 °F /  13.2 °C 48.4 °F /  9.1 °C 29.5in /  999.9hPa SSW 6.3mph /  10.1km/h 13.6mph /  21.9km/h 76% 0in /  0.0mm
15:02 55.8 °F /  13.2 °C 48 °F /  8.9 °C 29.5in /  999.9hPa South 4mph /  6.4km/h 13.6mph /  21.9km/h 75% 0in /  0.0mm
15:07 55.6 °F /  13.1 °C 47.8 °F /  8.8 °C 29.5in /  999.9hPa South 7.2mph /  11.6km/h 13.2mph /  21.2km/h 75% 0in /  0.0mm
15:12 55.6 °F /  13.1 °C 47.8 °F /  8.8 °C 29.5in /  999.9hPa South 8.5mph /  13.7km/h 13.2mph /  21.2km/h 75% 0in /  0.0mm
15:17 55.6 °F /  13.1 °C 47.7 °F /  8.7 °C 29.5in /  999.9hPa South 6.3mph /  10.1km/h 10.7mph /  17.2km/h 75% 0in /  0.0mm
15:22 55.2 °F /  12.9 °C 47.5 °F /  8.6 °C 29.5in /  999.9hPa South 7.6mph /  12.2km/h 10.7mph /  17.2km/h 75% 0in /  0.0mm
15:27 55.2 °F /  12.9 °C 47.5 °F /  8.6 °C 29.5in /  999.9hPa South 8.1mph /  13.0km/h 17mph /  27.4km/h 75% 0in /  0.0mm
15:32 55 °F /  12.8 °C 47.3 °F /  8.5 °C 29.5in /  999.9hPa SSE 7.2mph /  11.6km/h 17mph /  27.4km/h 75% 0in /  0.0mm
15:37 54.9 °F /  12.7 °C 47.7 °F /  8.7 °C 29.5in /  998.9hPa SSW 11.2mph /  18.0km/h 13.6mph /  21.9km/h 77% 0in /  0.0mm
15:42 54.7 °F /  12.6 °C 47.8 °F /  8.8 °C 29.5in /  998.9hPa SSW 2.9mph /  4.7km/h 13.6mph /  21.9km/h 78% 0in /  0.0mm
15:47 54.1 °F /  12.3 °C 47.8 °F /  8.8 °C 29.5in /  998.9hPa South 5.6mph /  9.0km/h 11.2mph /  18.0km/h 79% 0in /  0.0mm
15:52 54 °F /  12.2 °C 48 °F /  8.9 °C 29.5in /  998.9hPa South 4.3mph /  6.9km/h 15.4mph /  24.8km/h 80% 0in /  0.0mm
15:57 54 °F /  12.2 °C 48.2 °F /  9.0 °C 29.5in /  998.9hPa SSE 8.5mph /  13.7km/h 15.4mph /  24.8km/h 81% 0in /  0.0mm
16:02 53.4 °F /  11.9 °C 48.2 °F /  9.0 °C 29.5in /  998.9hPa South 10.1mph /  16.3km/h 12.8mph /  20.6km/h 82% 0in /  0.0mm
16:07 53.2 °F /  11.8 °C 48 °F /  8.9 °C 29.5in /  999.9hPa South 6.3mph /  10.1km/h 10.3mph /  16.6km/h 82% 0in /  0.0mm
16:12 53.2 °F /  11.8 °C 48.4 °F /  9.1 °C 29.5in /  999.9hPa South 7.8mph /  12.6km/h 14.3mph /  23.0km/h 83% 0in /  0.0mm
16:17 53.2 °F /  11.8 °C 48 °F /  8.9 °C 29.5in /  999.9hPa South 10.5mph /  16.9km/h 14.3mph /  23.0km/h 83% 0in /  0.0mm
16:22 53.2 °F /  11.8 °C 48.6 °F /  9.2 °C 29.5in /  998.9hPa SSE 12.5mph /  20.1km/h 13.4mph /  21.6km/h 84% 0in /  0.0mm
16:27 53.2 °F /  11.8 °C 48.6 °F /  9.2 °C 29.5in /  998.9hPa SSE 10.7mph /  17.2km/h 16.3mph /  26.2km/h 84% 0in /  0.0mm
16:32 53.2 °F /  11.8 °C 48.4 °F /  9.1 °C 29.5in /  998.9hPa South 12.5mph /  20.1km/h 16.3mph /  26.2km/h 83% 0in /  0.0mm
16:37 53.2 °F /  11.8 °C 48.4 °F /  9.1 °C 29.5in /  998.9hPa SSE 12.1mph /  19.5km/h 15.4mph /  24.8km/h 83% 0in /  0.0mm
16:42 53.4 °F /  11.9 °C 48.2 °F /  9.0 °C 29.5in /  998.9hPa South 5.4mph /  8.7km/h 17.4mph /  28.0km/h 82% 0in /  0.0mm
16:47 53.4 °F /  11.9 °C 48.2 °F /  9.0 °C 29.5in /  998.9hPa SSE 15.9mph /  25.6km/h 17.4mph /  28.0km/h 82% 0in /  0.0mm
16:52 53.4 °F /  11.9 °C 48.2 °F /  9.0 °C 29.5in /  998.9hPa SSE 15.4mph /  24.8km/h 15.9mph /  25.6km/h 82% 0in /  0.0mm
16:57 53.4 °F /  11.9 °C 48.2 °F /  9.0 °C 29.5in /  998.9hPa South 12.1mph /  19.5km/h 15.4mph /  24.8km/h 82% 0in /  0.0mm
17:02 53.2 °F /  11.8 °C 48.4 °F /  9.1 °C 29.5in /  998.9hPa SSW 9.4mph /  15.1km/h 17.2mph /  27.7km/h 83% 0in /  0.0mm
17:07 53.2 °F /  11.8 °C 48.4 °F /  9.1 °C 29.5in /  998.9hPa South 10.3mph /  16.6km/h 17.9mph /  28.8km/h 83% 0in /  0.0mm
17:12 53.2 °F /  11.8 °C 48.6 °F /  9.2 °C 29.5in /  998.9hPa SSW 7.6mph /  12.2km/h 17.9mph /  28.8km/h 84% 0in /  0.0mm
17:17 53.1 °F /  11.7 °C 48.6 °F /  9.2 °C 29.5in /  998.9hPa SSW 8.5mph /  13.7km/h 17.7mph /  28.5km/h 85% 0in /  0.0mm
17:22 52.9 °F /  11.6 °C 49.1 °F /  9.5 °C 29.5in /  998.9hPa South 5.6mph /  9.0km/h 14.1mph /  22.7km/h 87% 0in /  0.0mm
17:27 52.5 °F /  11.4 °C 49.5 °F /  9.7 °C 29.5in /  998.9hPa South 11.9mph /  19.1km/h 20.4mph /  32.8km/h 89% 0in /  0.0mm
17:32 52.5 °F /  11.4 °C 49.6 °F /  9.8 °C 29.5in /  998.9hPa South 8.7mph /  14.0km/h 20.4mph /  32.8km/h 90% 0.01in /  0.3mm
17:37 52.3 °F /  11.3 °C 49.6 °F /  9.8 °C 29.5in /  998.9hPa SSW 8.5mph /  13.7km/h 15.2mph /  24.5km/h 91% 0.01in /  0.3mm
17:42 52.2 °F /  11.2 °C 49.8 °F /  9.9 °C 29.5in /  998.9hPa SSW 7.8mph /  12.6km/h 15.4mph /  24.8km/h 92% 0.01in /  0.3mm
17:47 52 °F /  11.1 °C 49.6 °F /  9.8 °C 29.5in /  998.9hPa South 11mph /  17.7km/h 15.4mph /  24.8km/h 92% 0.01in /  0.3mm
17:52 51.8 °F /  11.0 °C 49.8 °F /  9.9 °C 29.5in /  999.9hPa South 8.1mph /  13.0km/h 13.2mph /  21.2km/h 93% 0.01in /  0.3mm
17:57 51.8 °F /  11.0 °C 49.8 °F /  9.9 °C 29.5in /  999.9hPa SSE 14.1mph /  22.7km/h 14.1mph /  22.7km/h 93% 0.01in /  0.3mm
18:02 51.6 °F /  10.9 °C 49.6 °F /  9.8 °C 29.5in /  999.9hPa South 7.8mph /  12.6km/h 14.1mph /  22.7km/h 93% 0.01in /  0.3mm
18:07 51.6 °F /  10.9 °C 49.6 °F /  9.8 °C 29.5in /  999.9hPa South 8.1mph /  13.0km/h 12.8mph /  20.6km/h 93% 0.01in /  0.3mm
18:12 51.4 °F /  10.8 °C 49.5 °F /  9.7 °C 29.5in /  999.9hPa SSE 8.7mph /  14.0km/h 12.8mph /  20.6km/h 93% 0.01in /  0.3mm
18:13 51.4 °F /  10.8 °C 49.5 °F /  9.7 °C 29.5in /  999.9hPa South 6mph /  9.7km/h 12.8mph /  20.6km/h 93% 0.01in /  0.3mm
18:18 51.6 °F /  10.9 °C 49.6 °F /  9.8 °C 29.5in /  999.9hPa SSW 6mph /  9.7km/h 16.6mph /  26.7km/h 93% 0.01in /  0.3mm
18:23 51.6 °F /  10.9 °C 49.3 °F /  9.6 °C 29.5in /  999.9hPa South 9.8mph /  15.8km/h 16.6mph /  26.7km/h 92% 0.01in /  0.3mm
18:28 51.6 °F /  10.9 °C 49.3 °F /  9.6 °C 29.5in /  999.9hPa SSW 6.9mph /  11.1km/h 13.2mph /  21.2km/h 92% 0.02in /  0.5mm
18:33 51.6 °F /  10.9 °C 49.3 °F /  9.6 °C 29.5in /  999.9hPa SSE 8.7mph /  14.0km/h 12.1mph /  19.5km/h 92% 0.01in /  0.3mm
18:38 51.6 °F /  10.9 °C 49.3 °F /  9.6 °C 29.5in /  999.9hPa South 12.3mph /  19.8km/h 12.5mph /  20.1km/h 92% 0.01in /  0.3mm
18:43 51.6 °F /  10.9 °C 49.3 °F /  9.6 °C 29.5in /  999.9hPa SSW 6mph /  9.7km/h 13.2mph /  21.2km/h 92% 0.01in /  0.3mm
18:48 51.6 °F /  10.9 °C 48.9 °F /  9.4 °C 29.5in /  999.9hPa SSW 7.6mph /  12.2km/h 13.2mph /  21.2km/h 91% 0.01in /  0.3mm
18:53 51.6 °F /  10.9 °C 48.9 °F /  9.4 °C 29.5in /  999.9hPa SSW 6.5mph /  10.5km/h 12.5mph /  20.1km/h 91% 0.01in /  0.3mm
18:58 51.6 °F /  10.9 °C 48.9 °F /  9.4 °C 29.5in /  999.9hPa SSW 8.9mph /  14.3km/h 10.5mph /  16.9km/h 91% 0.01in /  0.3mm
19:03 51.6 °F /  10.9 °C 48.9 °F /  9.4 °C 29.5in /  999.9hPa South 5.6mph /  9.0km/h 10.5mph /  16.9km/h 91% 0.01in /  0.3mm
19:08 51.6 °F /  10.9 °C 48.9 °F /  9.4 °C 29.5in /  999.9hPa South 5.4mph /  8.7km/h 11mph /  17.7km/h 91% 0.01in /  0.3mm
19:13 51.8 °F /  11.0 °C 48.9 °F /  9.4 °C 29.5in /  999.9hPa SSE 7.4mph /  11.9km/h 11mph /  17.7km/h 90% 0.01in /  0.3mm
19:18 51.8 °F /  11.0 °C 48.9 °F /  9.4 °C 29.5in /  999.9hPa South 6.3mph /  10.1km/h 11mph /  17.7km/h 90% 0.01in /  0.3mm
19:23 52 °F /  11.1 °C 48.7 °F /  9.3 °C 29.5in /  999.9hPa South 8.1mph /  13.0km/h 11.2mph /  18.0km/h 89% 0.01in /  0.3mm
19:28 52.2 °F /  11.2 °C 48.9 °F /  9.4 °C 29.5in /  999.9hPa South 7.6mph /  12.2km/h 14.3mph /  23.0km/h 89% 0in /  0.0mm
19:33 52.3 °F /  11.3 °C 48.7 °F /  9.3 °C 29.5in /  999.9hPa SSW 7.6mph /  12.2km/h 14.3mph /  23.0km/h 88% 0in /  0.0mm
19:38 52.3 °F /  11.3 °C 48.7 °F /  9.3 °C 29.5in /  999.9hPa South 9.4mph /  15.1km/h 12.5mph /  20.1km/h 88% 0in /  0.0mm
19:43 52.3 °F /  11.3 °C 48.7 °F /  9.3 °C 29.5in /  999.9hPa SSW 10.3mph /  16.6km/h 12.5mph /  20.1km/h 88% 0in /  0.0mm
19:48 52.3 °F /  11.3 °C 48.7 °F /  9.3 °C 29.5in /  999.9hPa SSW 6mph /  9.7km/h 12.1mph /  19.5km/h 88% 0in /  0.0mm
19:53 52.3 °F /  11.3 °C 48.7 °F /  9.3 °C 29.5in /  999.9hPa South 7.6mph /  12.2km/h 11.2mph /  18.0km/h 88% 0in /  0.0mm
19:58 52.3 °F /  11.3 °C 48.7 °F /  9.3 °C 29.5in /  999.9hPa South 10.1mph /  16.3km/h 11.2mph /  18.0km/h 88% 0in /  0.0mm
20:03 52.3 °F /  11.3 °C 48.7 °F /  9.3 °C 29.5in /  999.9hPa South 6.3mph /  10.1km/h 12.1mph /  19.5km/h 88% 0in /  0.0mm
20:08 52.3 °F /  11.3 °C 48.7 °F /  9.3 °C 29.5in /  999.9hPa SSW 7.8mph /  12.6km/h 12.1mph /  19.5km/h 88% 0in /  0.0mm
20:13 52.3 °F /  11.3 °C 48.6 °F /  9.2 °C 29.5in /  999.9hPa SSW 10.3mph /  16.6km/h 10.7mph /  17.2km/h 87% 0in /  0.0mm
20:18 52.3 °F /  11.3 °C 48.6 °F /  9.2 °C 29.5in /  999.9hPa South 6.5mph /  10.5km/h 12.8mph /  20.6km/h 87% 0in /  0.0mm
20:23 52.3 °F /  11.3 °C 48.6 °F /  9.2 °C 29.5in /  999.9hPa SSW 3.8mph /  6.1km/h 12.8mph /  20.6km/h 87% 0in /  0.0mm
20:28 52.3 °F /  11.3 °C 48.6 °F /  9.2 °C 29.5in /  999.9hPa SSE 7.8mph /  12.6km/h 10.5mph /  16.9km/h 87% 0in /  0.0mm
20:33 52.3 °F /  11.3 °C 48.7 °F /  9.3 °C 29.5in /  999.9hPa SSW 5.8mph /  9.3km/h 10.3mph /  16.6km/h 88% 0in /  0.0mm
20:38 52.3 °F /  11.3 °C 48.7 °F /  9.3 °C 29.5in /  999.9hPa SSE 8.5mph /  13.7km/h 10.7mph /  17.2km/h 88% 0in /  0.0mm
20:43 52.2 °F /  11.2 °C 48.7 °F /  9.3 °C 29.5in /  999.9hPa South 7.4mph /  11.9km/h 11.9mph /  19.1km/h 88% 0in /  0.0mm
20:48 52.2 °F /  11.2 °C 48.7 °F /  9.3 °C 29.5in /  999.9hPa SSW 8.1mph /  13.0km/h 11.9mph /  19.1km/h 88% 0in /  0.0mm
20:53 52.2 °F /  11.2 °C 48.7 °F /  9.3 °C 29.5in /  999.9hPa South 7.6mph /  12.2km/h 11.9mph /  19.1km/h 88% 0in /  0.0mm
20:58 52.2 °F /  11.2 °C 48.7 °F /  9.3 °C 29.5in /  999.9hPa South 11.9mph /  19.1km/h 12.8mph /  20.6km/h 88% 0in /  0.0mm
21:03 52.2 °F /  11.2 °C 48.9 °F /  9.4 °C 29.5in /  999.9hPa SSW 8.9mph /  14.3km/h 14.8mph /  23.8km/h 89% 0in /  0.0mm
21:08 52.2 °F /  11.2 °C 48.9 °F /  9.4 °C 29.5in /  999.9hPa SSW 4.9mph /  7.9km/h 11.4mph /  18.3km/h 89% 0in /  0.0mm
21:13 52.2 °F /  11.2 °C 48.9 °F /  9.4 °C 29.5in /  999.9hPa South 9.6mph /  15.4km/h 10.3mph /  16.6km/h 89% 0in /  0.0mm
21:18 52.2 °F /  11.2 °C 48.9 °F /  9.4 °C 29.5in /  999.9hPa SSW 6mph /  9.7km/h 9.8mph /  15.8km/h 89% 0in /  0.0mm
21:23 52.2 °F /  11.2 °C 48.9 °F /  9.4 °C 29.5in /  999.9hPa South 8.7mph /  14.0km/h 9.6mph /  15.4km/h 89% 0in /  0.0mm
21:28 52.2 °F /  11.2 °C 48.9 °F /  9.4 °C 29.5in /  999.9hPa SSW 4.3mph /  6.9km/h 15.2mph /  24.5km/h 89% 0in /  0.0mm
21:33 52 °F /  11.1 °C 49.1 °F /  9.5 °C 29.5in /  999.9hPa South 7.8mph /  12.6km/h 15.2mph /  24.5km/h 90% 0in /  0.0mm
21:38 52 °F /  11.1 °C 49.1 °F /  9.5 °C 29.5in /  999.9hPa South 9.6mph /  15.4km/h 12.3mph /  19.8km/h 90% 0in /  0.0mm
21:43 52 °F /  11.1 °C 49.1 °F /  9.5 °C 29.5in /  999.9hPa South 5.6mph /  9.0km/h 9.6mph /  15.4km/h 90% 0in /  0.0mm
21:48 52 °F /  11.1 °C 49.5 °F /  9.7 °C 29.5in /  999.9hPa South 8.5mph /  13.7km/h 10.3mph /  16.6km/h 91% 0in /  0.0mm
21:53 51.8 °F /  11.0 °C 49.3 °F /  9.6 °C 29.5in /  999.9hPa South 7.4mph /  11.9km/h 10.7mph /  17.2km/h 91% 0in /  0.0mm
21:58 52 °F /  11.1 °C 49.5 °F /  9.7 °C 29.5in /  999.9hPa SSW 10.7mph /  17.2km/h 12.5mph /  20.1km/h 91% 0in /  0.0mm
22:03 52.2 °F /  11.2 °C 49.6 °F /  9.8 °C 29.5in /  999.9hPa WSW 7.4mph /  11.9km/h 12.5mph /  20.1km/h 91% 0in /  0.0mm
22:08 52.2 °F /  11.2 °C 49.6 °F /  9.8 °C 29.5in /  999.9hPa SSW 7.2mph /  11.6km/h 10.5mph /  16.9km/h 91% 0in /  0.0mm
22:13 52.2 °F /  11.2 °C 49.6 °F /  9.8 °C 29.5in /  999.9hPa South 8.5mph /  13.7km/h 8.7mph /  14.0km/h 91% 0in /  0.0mm
22:14 52.2 °F /  11.2 °C 49.6 °F /  9.8 °C 29.5in /  999.9hPa South 8.5mph /  13.7km/h 8.7mph /  14.0km/h 91% 0in /  0.0mm
22:19 52.2 °F /  11.2 °C 49.6 °F /  9.8 °C 29.5in /  999.9hPa South 4.7mph /  7.6km/h 10.7mph /  17.2km/h 91% 0in /  0.0mm
22:24 52.2 °F /  11.2 °C 49.6 °F /  9.8 °C 29.5in /  999.9hPa SW 7.4mph /  11.9km/h 10.7mph /  17.2km/h 91% 0in /  0.0mm
22:29 52.2 °F /  11.2 °C 49.6 °F /  9.8 °C 29.5in /  999.9hPa SW 4.3mph /  6.9km/h 9.6mph /  15.4km/h 91% 0in /  0.0mm
22:34 52.2 °F /  11.2 °C 49.6 °F /  9.8 °C 29.5in /  999.9hPa SW 3.8mph /  6.1km/h 9.6mph /  15.4km/h 91% 0in /  0.0mm
22:39 52.2 °F /  11.2 °C 49.6 °F /  9.8 °C 29.5in /  999.9hPa SW 4.9mph /  7.9km/h 8.1mph /  13.0km/h 91% 0in /  0.0mm
22:44 52.2 °F /  11.2 °C 49.6 °F /  9.8 °C 29.5in /  999.9hPa SSW 8.7mph /  14.0km/h 8.7mph /  14.0km/h 91% 0in /  0.0mm
22:49 52.2 °F /  11.2 °C 49.6 °F /  9.8 °C 29.5in /  999.9hPa SSW 7.4mph /  11.9km/h 8.7mph /  14.0km/h 91% 0in /  0.0mm
22:54 52.2 °F /  11.2 °C 49.8 °F /  9.9 °C 29.5in /  999.9hPa SW 5.4mph /  8.7km/h 10.7mph /  17.2km/h 92% 0in /  0.0mm
22:59 52.2 °F /  11.2 °C 49.8 °F /  9.9 °C 29.5in /  999.9hPa SW 5.8mph /  9.3km/h 10.7mph /  17.2km/h 92% 0in /  0.0mm
23:04 52.2 °F /  11.2 °C 49.8 °F /  9.9 °C 29.5in /  999.9hPa SSW 8.5mph /  13.7km/h 11.9mph /  19.1km/h 92% 0in /  0.0mm
23:09 52 °F /  11.1 °C 49.6 °F /  9.8 °C 29.5in /  999.9hPa SSW 5.8mph /  9.3km/h 11.9mph /  19.1km/h 92% 0in /  0.0mm
23:14 52 °F /  11.1 °C 49.6 °F /  9.8 °C 29.5in /  999.9hPa South 4.9mph /  7.9km/h 9.6mph /  15.4km/h 92% 0in /  0.0mm
23:19 52 °F /  11.1 °C 49.6 °F /  9.8 °C 29.5in /  999.9hPa SSW 4.3mph /  6.9km/h 8.7mph /  14.0km/h 92% 0in /  0.0mm
23:24 52 °F /  11.1 °C 50 °F /  10.0 °C 29.5in /  999.9hPa SSW 8.1mph /  13.0km/h 10.5mph /  16.9km/h 93% 0in /  0.0mm
23:29 52 °F /  11.1 °C 49.6 °F /  9.8 °C 29.5in /  999.9hPa SSW 2.9mph /  4.7km/h 10.5mph /  16.9km/h 92% 0in /  0.0mm
23:34 51.8 °F /  11.0 °C 49.5 °F /  9.7 °C 29.5in /  999.9hPa SSW 5.6mph /  9.0km/h 8.5mph /  13.7km/h 92% 0in /  0.0mm
23:39 51.8 °F /  11.0 °C 49.5 °F /  9.7 °C 29.5in /  998.9hPa SW 6.5mph /  10.5km/h 8.7mph /  14.0km/h 92% 0in /  0.0mm
23:44 51.6 °F /  10.9 °C 49.6 °F /  9.8 °C 29.5in /  998.9hPa SSW 5.6mph /  9.0km/h 8.7mph /  14.0km/h 93% 0in /  0.0mm
23:49 51.6 °F /  10.9 °C 49.6 °F /  9.8 °C 29.5in /  998.9hPa Calm   7.8mph /  12.6km/h 93% 0in /  0.0mm
23:54 51.4 °F /  10.8 °C 49.5 °F /  9.7 °C 29.5in /  998.9hPa South 6.5mph /  10.5km/h 8.1mph /  13.0km/h 93% 0in /  0.0mm
23:59 51.4 °F /  10.8 °C 49.5 °F /  9.7 °C 29.5in /  998.9hPa SSW 7.6mph /  12.2km/h 9.4mph /  15.1km/h 93% 0in /  0.0mm
Données Historique de Météo Turbie

Mise a jour : 22/05/2018 21:48:14
Généré par Cumulus 1.9.4 (1099)